Time;durP1;ratioP1;P1;durP2;ratioP2;P2;SDS_P1;SDS_P2;PMS_P1;PMS_P2;Temp;Humidity;BMP_temperature;BMP_pressure;BME280_temperature;BME280_humidity;BME280_pressure;Samples;Min_cycle;Max_cycle;Signal;HPM_P1;HPM_P2
2024/01/08 00:00:50;;;;;;;17.27;10.40;;;-8.70;77.50;;;;;;6158683;23;20550;-85
2024/01/08 00:03:39;;;;;;;19.83;10.73;;;-8.70;77.50;;;;;;6158228;23;20699;-85
2024/01/08 00:06:09;;;;;;;14.50;8.40;;;-8.60;77.60;;;;;;6170926;23;20407;-84
2024/01/08 00:08:40;;;;;;;17.80;10.63;;;-8.60;77.50;;;;;;6165190;23;20494;-85
2024/01/08 00:11:12;;;;;;;16.13;8.87;;;-8.60;77.70;;;;;;6161574;23;20416;-85
2024/01/08 00:13:41;;;;;;;15.10;9.30;;;-8.70;77.60;;;;;;6117812;23;20427;-84
2024/01/08 00:16:10;;;;;;;15.17;8.30;;;-8.60;77.70;;;;;;6149992;23;20992;-85
2024/01/08 00:18:42;;;;;;;14.80;9.73;;;-8.30;78.00;;;;;;6152282;23;20406;-85
2024/01/08 00:21:12;;;;;;;16.23;9.47;;;-7.80;78.10;;;;;;6153136;23;20423;-86
2024/01/08 00:23:42;;;;;;;15.73;9.83;;;-8.70;77.80;;;;;;6151866;23;20438;-84
2024/01/08 00:26:13;;;;;;;17.37;10.20;;;-8.70;77.70;;;;;;6130058;23;20431;-86
2024/01/08 00:28:42;;;;;;;15.23;8.33;;;-8.60;77.50;;;;;;6166531;23;20423;-85
2024/01/08 00:31:11;;;;;;;18.93;10.67;;;-8.30;77.70;;;;;;6168238;23;20807;-83
2024/01/08 00:33:40;;;;;;;11.90;6.30;;;-8.20;77.80;;;;;;6160462;23;20752;-85
2024/01/08 00:36:10;;;;;;;13.07;8.10;;;-8.60;78.00;;;;;;6164438;23;20405;-85
2024/01/08 00:38:39;;;;;;;16.07;8.23;;;-8.60;77.90;;;;;;6159582;23;20719;-84
2024/01/08 00:41:08;;;;;;;20.50;10.70;;;-8.70;77.70;;;;;;6156995;23;20573;-82
2024/01/08 00:43:39;;;;;;;17.00;10.20;;;-8.60;78.00;;;;;;6165674;23;21055;-85
2024/01/08 00:46:08;;;;;;;14.27;7.33;;;-8.60;77.90;;;;;;6155282;23;20422;-88
2024/01/08 00:48:37;;;;;;;15.63;9.97;;;-8.60;77.50;;;;;;6150764;23;20415;-84
2024/01/08 00:51:06;;;;;;;16.50;10.10;;;-8.60;77.80;;;;;;6158910;23;20395;-84
2024/01/08 00:53:35;;;;;;;19.90;9.80;;;-8.60;77.90;;;;;;6165917;23;20477;-82
2024/01/08 00:56:05;;;;;;;17.33;10.83;;;-8.70;77.70;;;;;;6166217;23;20434;-84
2024/01/08 00:58:35;;;;;;;17.30;10.47;;;-8.70;77.80;;;;;;6173841;23;20894;-85
2024/01/08 01:01:05;;;;;;;17.03;9.83;;;-8.70;77.70;;;;;;6172417;23;20411;-84
2024/01/08 01:03:37;;;;;;;18.67;9.40;;;-8.70;77.80;;;;;;6153543;23;20488;-85
2024/01/08 01:06:06;;;;;;;18.30;11.00;;;-8.70;77.80;;;;;;6153790;23;20695;-83
2024/01/08 01:08:36;;;;;;;17.07;9.50;;;-8.50;77.70;;;;;;6150858;23;20909;-84
2024/01/08 01:11:07;;;;;;;18.70;10.73;;;-8.80;77.70;;;;;;6150613;23;20407;-86
2024/01/08 01:13:36;;;;;;;21.20;9.10;;;-8.70;78.00;;;;;;6149808;23;20454;-83
2024/01/08 01:16:09;;;;;;;18.63;9.70;;;-8.80;78.00;;;;;;6149954;23;20406;-86
2024/01/08 01:18:38;;;;;;;18.70;10.67;;;-8.80;78.20;;;;;;6148337;23;20445;-89
2024/01/08 01:21:07;;;;;;;14.10;8.27;;;-8.80;78.30;;;;;;6113742;23;20419;-84
2024/01/08 01:23:36;;;;;;;23.23;11.67;;;-8.80;78.30;;;;;;6148532;23;20427;-86
2024/01/08 01:26:06;;;;;;;19.53;11.67;;;-8.80;78.40;;;;;;6152254;23;20426;-83
2024/01/08 01:28:34;;;;;;;18.33;11.53;;;-7.90;78.90;;;;;;6148825;23;20507;-85
2024/01/08 01:31:03;;;;;;;15.70;9.27;;;-8.90;78.70;;;;;;6152237;23;20423;-85
2024/01/08 01:33:34;;;;;;;16.43;10.47;;;-9.00;78.60;;;;;;6152367;23;20508;-85
2024/01/08 01:36:03;;;;;;;12.60;7.47;;;-9.00;78.70;;;;;;6167108;23;20403;-85
2024/01/08 01:38:32;;;;;;;21.17;12.30;;;-9.00;79.00;;;;;;6169804;23;20450;-86
2024/01/08 01:41:02;;;;;;;21.37;13.27;;;-9.00;79.10;;;;;;6170395;23;20454;-85
2024/01/08 01:43:32;;;;;;;19.27;10.93;;;-9.00;79.00;;;;;;6152887;23;20502;-85
2024/01/08 01:46:05;;;;;;;13.03;8.80;;;-8.90;79.00;;;;;;6161483;23;20434;-85
2024/01/08 01:48:35;;;;;;;18.20;12.03;;;-9.00;78.90;;;;;;6160264;23;20419;-84
2024/01/08 01:51:05;;;;;;;17.77;7.17;;;-9.10;79.10;;;;;;6136454;23;20426;-84
2024/01/08 01:53:36;;;;;;;14.80;9.13;;;-9.10;79.00;;;;;;6162212;23;20438;-84
2024/01/08 01:56:06;;;;;;;13.40;7.30;;;-9.10;79.00;;;;;;6152423;23;20423;-84
2024/01/08 01:58:36;;;;;;;11.07;7.53;;;-9.10;79.10;;;;;;6147704;23;20403;-83
2024/01/08 02:01:06;;;;;;;17.43;8.63;;;-9.00;79.10;;;;;;6147890;23;20426;-83
2024/01/08 02:03:36;;;;;;;17.00;10.67;;;-9.20;79.20;;;;;;6147330;23;20432;-84
2024/01/08 02:06:10;;;;;;;16.47;8.30;;;-9.20;79.40;;;;;;6114216;23;20426;-85
2024/01/08 02:08:39;;;;;;;19.17;12.33;;;-9.10;79.40;;;;;;6156343;23;20462;-87
2024/01/08 02:11:08;;;;;;;24.57;12.67;;;-9.20;79.40;;;;;;6151646;23;20948;-87
2024/01/08 02:13:37;;;;;;;10.77;6.80;;;-9.20;79.20;;;;;;6148977;23;20439;-85
2024/01/08 02:16:06;;;;;;;13.40;7.20;;;-9.30;79.00;;;;;;6162926;23;20394;-83
2024/01/08 02:18:36;;;;;;;22.13;12.03;;;-9.30;79.20;;;;;;6173472;23;20429;-85
2024/01/08 02:21:06;;;;;;;18.70;10.50;;;-9.30;79.30;;;;;;6177817;23;20387;-83
2024/01/08 02:23:36;;;;;;;18.60;12.40;;;-9.40;79.20;;;;;;6176771;23;20395;-84
2024/01/08 02:26:05;;;;;;;21.20;12.20;;;-9.40;79.20;;;;;;6179465;23;20445;-85
2024/01/08 02:28:34;;;;;;;19.53;12.03;;;-9.10;79.40;;;;;;6179282;23;20403;-84
2024/01/08 02:31:03;;;;;;;21.27;11.67;;;-9.50;79.20;;;;;;6176510;23;20513;-85
2024/01/08 02:33:32;;;;;;;25.47;12.67;;;-9.50;79.20;;;;;;6175873;23;20613;-87
2024/01/08 02:36:01;;;;;;;14.30;8.73;;;-9.50;79.10;;;;;;6178849;23;20419;-85
2024/01/08 02:38:30;;;;;;;20.77;11.70;;;-9.60;79.20;;;;;;6178081;23;20430;-86
2024/01/08 02:41:00;;;;;;;17.10;10.63;;;-9.60;79.30;;;;;;6179576;23;20486;-85
2024/01/08 02:43:29;;;;;;;12.33;8.93;;;-9.60;79.30;;;;;;6178399;23;20412;-85
2024/01/08 02:46:00;;;;;;;17.80;10.27;;;-9.60;79.20;;;;;;6143368;23;20423;-85
2024/01/08 02:48:28;;;;;;;16.90;11.37;;;-9.60;79.10;;;;;;6179503;23;20511;-85
2024/01/08 02:50:58;;;;;;;21.13;11.87;;;-9.70;79.20;;;;;;6142826;23;20680;-86
2024/01/08 02:53:27;;;;;;;21.80;10.13;;;-9.40;79.20;;;;;;6143302;23;20442;-85
2024/01/08 02:55:56;;;;;;;21.87;12.70;;;-9.70;79.10;;;;;;6176996;23;20610;-84
2024/01/08 02:58:26;;;;;;;22.27;12.67;;;-9.60;79.30;;;;;;6179995;23;20474;-86
2024/01/08 03:00:55;;;;;;;16.33;10.27;;;-9.60;79.40;;;;;;6176726;23;20407;-83
2024/01/08 03:03:24;;;;;;;22.40;12.73;;;-9.60;79.10;;;;;;6179075;23;20433;-82
2024/01/08 03:05:54;;;;;;;12.77;6.40;;;-9.70;79.20;;;;;;6177505;23;20410;-85
2024/01/08 03:08:22;;;;;;;19.77;11.50;;;-9.80;79.10;;;;;;6176127;23;20426;-85
2024/01/08 03:10:51;;;;;;;17.03;10.80;;;-9.80;79.20;;;;;;6136634;23;20485;-84
2024/01/08 03:13:20;;;;;;;23.90;12.33;;;-9.80;79.30;;;;;;6176424;23;20491;-83
2024/01/08 03:15:51;;;;;;;13.77;7.67;;;-9.80;79.40;;;;;;6177008;23;20584;-85
2024/01/08 03:18:21;;;;;;;17.67;9.50;;;-9.90;78.90;;;;;;6176386;23;20433;-86
2024/01/08 03:20:50;;;;;;;18.63;10.57;;;-10.00;79.00;;;;;;6139572;23;20430;-87
2024/01/08 03:23:19;;;;;;;13.40;8.17;;;-10.00;79.10;;;;;;6160906;23;20419;-83
2024/01/08 03:25:48;;;;;;;18.10;10.67;;;-10.10;79.20;;;;;;6153650;23;20407;-85
2024/01/08 03:28:16;;;;;;;15.13;8.83;;;-10.00;79.40;;;;;;6168605;23;20398;-83
2024/01/08 03:30:45;;;;;;;20.63;12.07;;;-9.40;79.60;;;;;;6172699;23;20477;-84
2024/01/08 03:33:15;;;;;;;15.10;9.17;;;-10.10;79.10;;;;;;6169049;23;20434;-84
2024/01/08 03:35:45;;;;;;;17.37;10.63;;;-9.60;79.50;;;;;;6156162;23;20419;-84
2024/01/08 03:38:13;;;;;;;20.57;13.27;;;-10.00;79.40;;;;;;6155303;23;20417;-84
2024/01/08 03:40:42;;;;;;;20.67;11.93;;;-10.10;79.20;;;;;;6174516;23;20593;-82
2024/01/08 03:43:12;;;;;;;16.67;10.73;;;-10.10;79.30;;;;;;6173926;23;20647;-86
2024/01/08 03:45:41;;;;;;;17.73;11.27;;;-10.10;79.50;;;;;;6159103;23;20430;-84
2024/01/08 03:48:10;;;;;;;18.43;9.30;;;-9.60;79.40;;;;;;6150801;23;20486;-83
2024/01/08 03:50:40;;;;;;;23.90;13.20;;;-10.10;79.20;;;;;;6149004;23;20427;-82
2024/01/08 03:53:08;;;;;;;16.20;9.87;;;-10.20;79.20;;;;;;6151690;23;20423;-84
2024/01/08 03:55:38;;;;;;;18.47;11.33;;;-10.20;79.00;;;;;;6149929;23;20568;-83
2024/01/08 03:58:06;;;;;;;13.23;8.73;;;-9.90;79.40;;;;;;6113074;23;20915;-84
2024/01/08 04:00:35;;;;;;;21.30;11.70;;;-10.20;78.70;;;;;;6150604;23;20419;-85
2024/01/08 04:03:05;;;;;;;18.63;10.90;;;-10.20;78.90;;;;;;6149236;23;20415;-84
2024/01/08 04:05:34;;;;;;;14.37;9.33;;;-10.20;78.70;;;;;;6152389;23;20411;-86
2024/01/08 04:08:05;;;;;;;17.80;10.50;;;-10.30;78.60;;;;;;6146013;23;20875;-86
2024/01/08 04:10:34;;;;;;;19.63;12.30;;;-10.30;78.90;;;;;;6126343;23;20430;-84
2024/01/08 04:13:03;;;;;;;14.37;9.40;;;-10.30;78.70;;;;;;6147884;23;20538;-83
2024/01/08 04:15:32;;;;;;;10.70;7.10;;;-10.30;78.60;;;;;;6149879;23;20444;-84
2024/01/08 04:18:01;;;;;;;19.80;12.70;;;-10.20;78.70;;;;;;6147743;23;20423;-85
2024/01/08 04:20:31;;;;;;;25.20;13.47;;;-10.30;79.00;;;;;;6156221;23;20413;-85
2024/01/08 04:22:59;;;;;;;17.83;10.80;;;-10.30;79.10;;;;;;6160216;23;20417;-84
2024/01/08 04:25:30;;;;;;;17.10;9.83;;;-10.30;78.60;;;;;;6152468;23;20425;-85
2024/01/08 04:27:58;;;;;;;18.10;11.83;;;-10.30;78.50;;;;;;6150624;23;20399;-84
2024/01/08 04:30:31;;;;;;;12.50;8.83;;;-10.30;78.70;;;;;;6157108;23;20605;-84
2024/01/08 04:32:59;;;;;;;24.90;11.23;;;-10.40;78.30;;;;;;6152892;23;20505;-84
2024/01/08 04:35:29;;;;;;;11.67;8.20;;;-10.50;78.30;;;;;;6155082;23;20457;-83
2024/01/08 04:37:57;;;;;;;20.40;11.07;;;-10.40;78.50;;;;;;6142725;23;20411;-85
2024/01/08 04:40:26;;;;;;;21.70;11.83;;;-10.40;78.90;;;;;;6176111;23;20433;-83
2024/01/08 04:42:56;;;;;;;22.07;11.27;;;-10.40;78.60;;;;;;6167129;23;20430;-84
2024/01/08 04:45:26;;;;;;;20.60;11.87;;;-10.40;78.80;;;;;;6129648;23;20430;-84
2024/01/08 04:47:55;;;;;;;23.53;12.03;;;-10.40;78.80;;;;;;6159335;23;20444;-84
2024/01/08 04:50:25;;;;;;;16.00;8.37;;;-10.40;78.60;;;;;;6156149;23;20418;-83
2024/01/08 04:52:53;;;;;;;20.60;10.87;;;-9.90;78.90;;;;;;6173628;23;20442;-87
2024/01/08 04:55:22;;;;;;;13.70;7.93;;;-10.40;78.50;;;;;;6175018;23;20811;-84
2024/01/08 04:57:53;;;;;;;17.27;11.53;;;-10.00;78.50;;;;;;6161666;23;20421;-88
2024/01/08 05:00:24;;;;;;;15.77;7.30;;;-10.50;78.20;;;;;;6174728;23;20450;-85
2024/01/08 05:02:55;;;;;;;21.43;10.97;;;-10.50;78.30;;;;;;6171465;23;20419;-85
2024/01/08 05:05:25;;;;;;;14.17;9.10;;;-10.70;78.40;;;;;;6168240;23;20774;-84
2024/01/08 05:07:53;;;;;;;22.70;11.93;;;-9.90;78.50;;;;;;6154810;23;20479;-83
2024/01/08 05:10:22;;;;;;;9.20;6.30;;;-10.50;78.30;;;;;;6159149;23;20471;-85
2024/01/08 05:12:51;;;;;;;18.63;10.63;;;-9.80;78.40;;;;;;6164845;23;20435;-86
2024/01/08 05:15:20;;;;;;;16.47;9.07;;;-10.60;78.10;;;;;;6158268;23;20450;-85
2024/01/08 05:17:51;;;;;;;18.67;10.63;;;-10.40;78.30;;;;;;6153023;23;20445;-85
2024/01/08 05:20:20;;;;;;;10.40;6.43;;;-10.60;78.20;;;;;;6152090;23;20418;-87
2024/01/08 05:22:49;;;;;;;19.27;11.67;;;-10.60;78.20;;;;;;6155190;23;20422;-85
2024/01/08 05:25:19;;;;;;;20.17;10.23;;;-10.70;78.10;;;;;;6118914;23;20749;-83
2024/01/08 05:27:48;;;;;;;21.50;12.33;;;-10.70;78.00;;;;;;6159394;23;20423;-89
2024/01/08 05:30:17;;;;;;;14.00;8.43;;;-10.70;78.20;;;;;;6165113;23;20414;-84
2024/01/08 05:32:45;;;;;;;19.43;10.40;;;-10.90;78.00;;;;;;6152340;23;20517;-87
2024/01/08 05:35:16;;;;;;;21.77;10.33;;;-10.70;78.20;;;;;;6154251;23;21030;-83
2024/01/08 05:37:45;;;;;;;23.37;12.00;;;-10.70;78.30;;;;;;6151540;23;20521;-85
2024/01/08 05:40:16;;;;;;;19.20;10.03;;;-10.80;78.20;;;;;;6149924;23;20421;-83
2024/01/08 05:42:45;;;;;;;21.27;11.80;;;-10.30;78.30;;;;;;6151122;23;20757;-85
2024/01/08 05:45:14;;;;;;;16.17;8.83;;;-10.80;78.20;;;;;;6148162;23;21044;-84
2024/01/08 05:47:44;;;;;;;12.90;7.53;;;-10.90;78.00;;;;;;6152644;23;20825;-86
2024/01/08 05:50:16;;;;;;;8.47;5.77;;;-10.80;78.30;;;;;;6152300;23;20403;-84
2024/01/08 05:52:46;;;;;;;18.63;11.33;;;-10.90;78.20;;;;;;6148188;23;20416;-85
2024/01/08 05:55:15;;;;;;;11.17;8.03;;;-10.90;78.40;;;;;;6150018;23;20868;-83
2024/01/08 05:57:44;;;;;;;12.50;8.73;;;-10.90;78.10;;;;;;6148881;23;20762;-86
2024/01/08 06:00:14;;;;;;;19.30;12.70;;;-11.00;78.00;;;;;;6145370;23;20467;-85
2024/01/08 06:02:43;;;;;;;20.93;11.83;;;-10.90;78.30;;;;;;6141997;23;20452;-85
2024/01/08 06:05:12;;;;;;;16.80;10.37;;;-10.80;78.30;;;;;;6119764;23;20429;-86
2024/01/08 06:07:47;;;;;;;19.60;12.30;;;-11.00;78.20;;;;;;6146591;23;20591;-85
2024/01/08 06:10:17;;;;;;;9.60;6.97;;;-11.10;77.90;;;;;;6148434;23;20850;-86
2024/01/08 06:12:45;;;;;;;11.20;8.53;;;-11.10;77.80;;;;;;6156668;23;20432;-86
2024/01/08 06:15:15;;;;;;;22.20;11.67;;;-11.10;77.60;;;;;;6159903;23;20480;-84
2024/01/08 06:17:45;;;;;;;19.87;11.40;;;-11.10;77.80;;;;;;6162015;23;20425;-82
2024/01/08 06:20:14;;;;;;;18.60;10.33;;;-11.10;77.80;;;;;;6146225;23;20422;-81
2024/01/08 06:22:43;;;;;;;17.80;9.93;;;-11.10;77.90;;;;;;6135952;23;21022;-82
2024/01/08 06:25:13;;;;;;;17.73;10.90;;;-11.20;77.50;;;;;;6154399;23;20412;-83
2024/01/08 06:27:41;;;;;;;13.90;9.10;;;-11.20;77.50;;;;;;6165631;23;20626;-82
2024/01/08 06:30:12;;;;;;;21.20;10.10;;;-11.00;77.60;;;;;;6135403;23;20432;-83
2024/01/08 06:32:40;;;;;;;11.23;6.40;;;-11.30;77.60;;;;;;6140950;23;20425;-81
2024/01/08 06:35:09;;;;;;;16.60;11.27;;;-11.30;77.70;;;;;;6140022;23;20440;-79
2024/01/08 06:37:38;;;;;;;13.27;7.90;;;-11.30;77.50;;;;;;6129783;23;21070;-81
2024/01/08 06:40:10;;;;;;;14.70;6.67;;;-11.20;77.70;;;;;;6114183;23;20432;-82
2024/01/08 06:42:39;;;;;;;19.53;12.10;;;-11.30;77.70;;;;;;6137173;23;20405;-81
2024/01/08 06:45:27;;;;;;;19.97;10.37;;;-11.30;77.80;;;;;;6139473;23;20431;-83
2024/01/08 06:47:56;;;;;;;18.10;10.17;;;-11.30;77.90;;;;;;6136158;23;20425;-82
2024/01/08 06:50:25;;;;;;;17.37;10.47;;;-11.30;78.30;;;;;;6132705;23;20504;-82
2024/01/08 06:52:54;;;;;;;16.83;9.77;;;-11.30;78.30;;;;;;6130349;23;20812;-81
2024/01/08 06:55:23;;;;;;;16.17;8.47;;;-11.30;77.90;;;;;;6133777;23;20483;-79
2024/01/08 06:57:53;;;;;;;21.07;10.00;;;-11.40;77.50;;;;;;6136839;23;20424;-81
2024/01/08 07:00:23;;;;;;;14.33;9.33;;;-11.40;77.80;;;;;;6134925;23;20424;-83
2024/01/08 07:02:52;;;;;;;11.23;8.00;;;-11.40;77.50;;;;;;6116786;23;20638;-80
2024/01/08 07:05:21;;;;;;;14.73;8.43;;;-11.40;77.70;;;;;;6122500;23;20748;-81
2024/01/08 07:07:50;;;;;;;12.30;8.83;;;-11.40;77.80;;;;;;6116820;23;20414;-81
2024/01/08 07:10:19;;;;;;;18.20;9.47;;;-11.40;77.60;;;;;;6117217;23;20420;-82
2024/01/08 07:12:48;;;;;;;15.70;11.17;;;-11.40;77.50;;;;;;6124479;23;20458;-81
2024/01/08 07:15:48;;;;;;;17.10;10.93;;;-11.40;77.60;;;;;;6118711;23;20494;-84
2024/01/08 07:18:17;;;;;;;15.90;9.23;;;-11.20;77.70;;;;;;6115642;23;20510;-83
2024/01/08 07:20:48;;;;;;;13.30;8.40;;;-11.40;77.60;;;;;;6105473;23;21258;-83
2024/01/08 07:23:16;;;;;;;16.13;10.03;;;-11.30;77.40;;;;;;6111720;23;20453;-82
2024/01/08 07:25:46;;;;;;;10.37;7.00;;;-11.40;77.40;;;;;;6114413;23;20790;-81
2024/01/08 07:28:15;;;;;;;22.53;11.57;;;-11.40;77.50;;;;;;6120725;23;20421;-83
2024/01/08 07:30:46;;;;;;;16.43;8.53;;;-11.30;77.60;;;;;;6096765;23;20438;-80
2024/01/08 07:33:16;;;;;;;17.57;10.83;;;-11.30;77.60;;;;;;6111023;23;20938;-83
2024/01/08 07:35:45;;;;;;;18.53;10.23;;;-11.30;77.20;;;;;;6106581;23;20456;-80
2024/01/08 07:38:14;;;;;;;15.57;8.90;;;-11.30;77.40;;;;;;6109115;23;20411;-81
2024/01/08 07:40:43;;;;;;;14.50;9.03;;;-11.20;77.20;;;;;;6114420;23;20409;-83
2024/01/08 07:43:11;;;;;;;15.23;9.40;;;-11.30;77.20;;;;;;6108143;23;20648;-83
2024/01/08 07:45:45;;;;;;;18.47;11.07;;;-11.20;77.50;;;;;;6098984;23;21230;-82
2024/01/08 07:48:14;;;;;;;10.47;8.60;;;-11.20;77.40;;;;;;6099610;23;20647;-81
2024/01/08 07:50:43;;;;;;;15.30;8.37;;;-11.10;77.30;;;;;;6108066;23;20518;-82
2024/01/08 07:53:12;;;;;;;11.70;7.93;;;-11.20;77.10;;;;;;6094787;23;20593;-83
2024/01/08 07:55:40;;;;;;;21.73;11.20;;;-11.20;77.20;;;;;;6108272;23;20936;-81
2024/01/08 07:58:13;;;;;;;17.60;9.30;;;-11.20;77.30;;;;;;6128516;23;20674;-81
2024/01/08 08:00:42;;;;;;;18.70;10.87;;;-11.10;77.40;;;;;;6117983;23;20434;-83
2024/01/08 08:03:12;;;;;;;19.27;11.10;;;-11.00;77.30;;;;;;6111451;23;21000;-83
2024/01/08 08:05:41;;;;;;;21.03;11.33;;;-11.00;77.40;;;;;;6109964;23;20430;-81
2024/01/08 08:08:10;;;;;;;17.27;11.07;;;-10.90;77.20;;;;;;6106374;23;20630;-83
2024/01/08 08:10:39;;;;;;;22.77;12.37;;;-10.70;77.00;;;;;;6120374;23;20430;-84
2024/01/08 08:13:07;;;;;;;16.10;9.67;;;-11.00;76.90;;;;;;6112216;23;20935;-80
2024/01/08 08:15:36;;;;;;;18.47;11.20;;;-10.90;76.80;;;;;;6110999;23;20445;-80
2024/01/08 08:18:05;;;;;;;13.90;8.27;;;-10.90;77.00;;;;;;6115919;23;20599;-82
2024/01/08 08:20:37;;;;;;;18.27;11.57;;;-10.80;77.10;;;;;;6115986;23;20407;-81
2024/01/08 08:23:05;;;;;;;17.90;6.47;;;-10.70;77.00;;;;;;6101676;23;20775;-79
2024/01/08 08:25:35;;;;;;;20.47;11.13;;;-10.70;76.80;;;;;;6127226;23;20470;-81
2024/01/08 08:28:04;;;;;;;20.73;9.90;;;-10.60;76.80;;;;;;6121920;23;21065;-82
2024/01/08 08:30:33;;;;;;;21.20;11.57;;;-10.60;76.70;;;;;;6128726;23;20428;-82
2024/01/08 08:33:02;;;;;;;21.23;10.43;;;-10.50;76.90;;;;;;6084349;23;20929;-82
2024/01/08 08:35:31;;;;;;;19.27;10.93;;;-10.50;76.80;;;;;;6103824;23;20661;-80
2024/01/08 08:38:02;;;;;;;22.60;12.27;;;-10.50;76.70;;;;;;6105700;23;20423;-83
2024/01/08 08:40:31;;;;;;;23.17;13.63;;;-10.40;77.00;;;;;;6115572;23;20414;-82
2024/01/08 08:42:59;;;;;;;22.90;13.17;;;-10.20;77.20;;;;;;6104431;23;20667;-82
2024/01/08 08:45:28;;;;;;;16.40;9.87;;;-10.30;76.50;;;;;;6111828;23;20438;-82
2024/01/08 08:47:56;;;;;;;18.87;11.47;;;-10.20;76.70;;;;;;6104168;23;20419;-82
2024/01/08 08:50:25;;;;;;;16.57;10.27;;;-10.20;76.60;;;;;;6105769;23;20737;-83
2024/01/08 08:52:54;;;;;;;16.77;10.70;;;-10.20;76.30;;;;;;6104177;23;20418;-82
2024/01/08 08:55:24;;;;;;;15.10;8.13;;;-10.20;76.40;;;;;;6100868;23;21097;-82
2024/01/08 08:57:52;;;;;;;22.40;12.83;;;-10.30;76.10;;;;;;6118857;23;20445;-81
2024/01/08 09:00:22;;;;;;;15.50;10.03;;;-10.30;76.40;;;;;;6121631;23;20504;-81
2024/01/08 09:02:52;;;;;;;10.73;7.27;;;-10.30;76.40;;;;;;6108912;23;20510;-82
2024/01/08 09:05:21;;;;;;;19.63;11.33;;;-10.30;76.40;;;;;;6121141;23;21551;-82
2024/01/08 09:08:04;;;;;;;18.63;10.80;;;-10.30;76.50;;;;;;6116266;23;20406;-84
2024/01/08 09:31:57;;;;;;;20.47;11.43;;;-10.00;76.60;;;;;;5726842;23;21254;-83
2024/01/08 09:52:51;;;;;;;20.37;12.23;;;-9.70;76.50;;;;;;5693231;24;20929;-82
2024/01/08 10:23:09;;;;;;;18.30;11.07;;;-9.50;76.10;;;;;;5815225;23;20846;-83
2024/01/08 11:23:43;;;;;;;19.23;12.00;;;-9.00;75.90;;;;;;5586531;24;20955;-84
2024/01/08 11:44:40;;;;;;;18.80;9.40;;;-8.90;75.90;;;;;;5704148;24;20746;-82
2024/01/08 12:55:39;;;;;;;13.10;7.73;;;-8.60;75.40;;;;;;5701516;24;20766;-82
2024/01/08 13:26:12;;;;;;;17.27;10.40;;;-8.50;75.30;;;;;;5813314;23;20630;-81
2024/01/08 13:51:39;;;;;;;19.00;11.47;;;-8.90;75.40;;;;;;5820586;23;20899;-82
2024/01/08 14:21:50;;;;;;;20.90;11.77;;;-9.30;76.00;;;;;;5863614;23;20561;-83
2024/01/08 14:52:21;;;;;;;11.77;8.13;;;-9.80;75.90;;;;;;5799727;24;20642;-83
2024/01/08 15:17:52;;;;;;;24.53;12.27;;;-10.20;76.50;;;;;;5784221;24;20608;-86
2024/01/08 16:28:38;;;;;;;23.50;13.90;;;-10.80;78.20;;;;;;5781545;24;20734;-85
2024/01/08 17:14:24;;;;;;;10.47;5.63;;;-11.00;77.50;;;;;;5861538;24;20873;-85
2024/01/08 18:20:31;;;;;;;29.17;13.77;;;-11.30;79.90;;;;;;5972557;23;20494;-86
2024/01/08 18:40:52;;;;;;;10.43;6.17;;;-11.60;80.80;;;;;;5696972;24;20494;-87
2024/01/08 19:21:26;;;;;;;28.70;15.73;;;-11.70;81.90;;;;;;5695112;24;20452;-85
2024/01/08 19:46:47;;;;;;;35.03;17.07;;;-11.80;82.70;;;;;;5751659;24;20427;-84
2024/01/08 20:16:48;;;;;;;21.80;12.43;;;-12.00;82.90;;;;;;5957497;23;20614;-84
2024/01/08 20:37:05;;;;;;;29.37;14.90;;;-12.00;83.10;;;;;;6120537;23;20617;-86
2024/01/08 22:03:49;;;;;;;37.40;17.53;;;-12.10;84.20;;;;;;5938336;23;20529;-85
2024/01/08 22:39:00;;;;;;;35.23;17.60;;;-12.20;83.80;;;;;;5940565;23;20754;-86
2024/01/08 23:04:35;;;;;;;35.77;17.10;;;-12.30;84.70;;;;;;5902021;24;20571;-85
2024/01/08 23:40:17;;;;;;;38.43;18.77;;;-12.50;85.10;;;;;;6065299;23;20429;-87
